createdAt,value
2017-11-29T00:02:21.532Z,10.80
2017-11-29T00:04:49.819Z,10.40
2017-11-29T00:07:18.100Z,10.37
2017-11-29T00:09:46.397Z,7.63
2017-11-29T00:12:14.657Z,14.33
2017-11-29T00:14:42.919Z,15.73
2017-11-29T00:17:11.411Z,13.90
2017-11-29T00:19:39.824Z,15.10
2017-11-29T00:22:08.904Z,13.30
2017-11-29T00:24:37.139Z,13.30
2017-11-29T00:27:05.466Z,9.33
2017-11-29T00:29:33.725Z,12.63
2017-11-29T00:32:01.969Z,8.50
2017-11-29T00:34:31.001Z,13.07
2017-11-29T00:36:59.259Z,15.60
2017-11-29T00:39:27.530Z,13.07
2017-11-29T00:41:55.801Z,21.53
2017-11-29T00:44:24.816Z,13.67
2017-11-29T00:46:53.462Z,14.20
2017-11-29T00:49:21.742Z,8.83
2017-11-29T00:51:50.773Z,17.97
2017-11-29T00:54:19.041Z,11.00
2017-11-29T00:56:48.049Z,15.37
2017-11-29T00:59:16.296Z,13.53
2017-11-29T01:01:45.346Z,11.07
2017-11-29T01:04:14.407Z,11.53
2017-11-29T01:06:43.429Z,9.77
2017-11-29T01:09:11.691Z,10.27
2017-11-29T01:11:39.947Z,12.17
2017-11-29T01:14:08.232Z,12.67
2017-11-29T01:16:37.262Z,12.27
2017-11-29T01:19:05.507Z,25.43
2017-11-29T01:21:33.777Z,12.63
2017-11-29T01:24:02.022Z,18.20
2017-11-29T01:26:30.262Z,11.87
2017-11-29T01:28:58.516Z,13.00
2017-11-29T01:31:26.785Z,11.97
2017-11-29T01:33:55.807Z,16.07
2017-11-29T01:36:24.086Z,14.43
2017-11-29T01:38:52.355Z,13.00
2017-11-29T01:41:20.645Z,13.60
2017-11-29T01:43:48.957Z,13.00
2017-11-29T01:46:17.195Z,20.53
2017-11-29T01:48:45.506Z,16.53
2017-11-29T01:51:14.051Z,11.60
2017-11-29T01:53:42.373Z,21.70
2017-11-29T01:56:10.677Z,16.47
2017-11-29T01:58:38.902Z,12.80
2017-11-29T02:01:07.185Z,17.63
2017-11-29T02:03:35.535Z,13.10
2017-11-29T02:08:59.676Z,14.20
2017-11-29T02:11:27.942Z,14.70
2017-11-29T02:13:56.229Z,13.33
2017-11-29T02:16:24.525Z,14.10
2017-11-29T02:18:52.812Z,12.87
2017-11-29T02:21:21.086Z,19.40
2017-11-29T02:23:49.379Z,15.80
2017-11-29T02:26:17.671Z,14.33
2017-11-29T02:28:45.975Z,13.30
2017-11-29T02:31:14.219Z,17.47
2017-11-29T02:33:42.508Z,11.93
2017-11-29T02:36:10.803Z,13.80
2017-11-29T02:38:39.056Z,12.63
2017-11-29T02:41:19.195Z,12.70
2017-11-29T02:43:48.232Z,16.93
2017-11-29T02:46:16.533Z,11.23
2017-11-29T02:48:45.165Z,11.97
2017-11-29T02:51:14.338Z,10.40
2017-11-29T02:53:43.384Z,13.93
2017-11-29T02:56:11.671Z,12.47
2017-11-29T02:58:39.987Z,16.10
2017-11-29T03:01:08.263Z,11.23
2017-11-29T03:03:37.278Z,11.60
2017-11-29T03:06:06.284Z,10.07
2017-11-29T03:08:34.557Z,14.07
2017-11-29T03:11:03.582Z,12.53
2017-11-29T03:13:31.816Z,11.83
2017-11-29T03:16:00.069Z,12.53
2017-11-29T03:18:28.308Z,11.37
2017-11-29T03:20:56.535Z,15.43
2017-11-29T03:23:24.851Z,12.83
2017-11-29T03:25:54.639Z,18.67
2017-11-29T03:28:22.912Z,12.03
2017-11-29T03:30:52.000Z,12.90
2017-11-29T03:33:20.216Z,11.23
2017-11-29T03:35:48.484Z,9.77
2017-11-29T03:38:17.514Z,9.70
2017-11-29T03:40:45.746Z,16.13
2017-11-29T03:43:14.751Z,15.40
2017-11-29T03:45:43.051Z,10.40
2017-11-29T03:48:11.284Z,9.17
2017-11-29T03:50:40.321Z,9.70
2017-11-29T03:53:08.618Z,10.27
2017-11-29T03:55:36.865Z,12.60
2017-11-29T03:58:05.102Z,12.97
2017-11-29T04:00:34.125Z,9.50
2017-11-29T04:03:03.165Z,18.90
2017-11-29T04:05:31.422Z,11.13
2017-11-29T04:07:59.671Z,12.10
2017-11-29T04:10:28.668Z,13.10
2017-11-29T04:12:56.952Z,11.23
2017-11-29T04:15:25.236Z,11.93
2017-11-29T04:17:53.535Z,11.00
2017-11-29T04:20:21.854Z,13.63
2017-11-29T04:22:50.063Z,9.40
2017-11-29T04:25:18.318Z,8.90
2017-11-29T04:27:46.604Z,10.10
2017-11-29T04:30:15.600Z,14.63
2017-11-29T04:32:43.899Z,8.80
2017-11-29T04:35:12.140Z,13.50
2017-11-29T04:37:41.198Z,12.03
2017-11-29T04:40:09.401Z,16.37
2017-11-29T04:42:37.661Z,7.67
2017-11-29T04:45:05.904Z,10.30
2017-11-29T04:47:34.137Z,9.17
2017-11-29T04:50:03.275Z,6.57
2017-11-29T04:52:31.505Z,11.53
2017-11-29T04:55:00.523Z,5.77
2017-11-29T04:57:28.775Z,12.57
2017-11-29T04:59:57.830Z,8.27
2017-11-29T05:02:26.080Z,8.37
2017-11-29T05:04:54.362Z,6.33
2017-11-29T05:07:23.643Z,8.07
2017-11-29T05:09:52.674Z,8.03
2017-11-29T05:12:20.964Z,14.87
2017-11-29T05:14:49.222Z,7.90
2017-11-29T05:17:17.476Z,6.80
2017-11-29T05:19:46.533Z,8.57
2017-11-29T05:22:16.007Z,7.80
2017-11-29T05:24:45.156Z,10.10
2017-11-29T05:27:13.417Z,13.00
2017-11-29T05:29:41.671Z,11.03
2017-11-29T05:32:09.950Z,8.70
2017-11-29T05:34:38.236Z,7.47
2017-11-29T05:37:06.527Z,14.33
2017-11-29T05:39:34.784Z,20.47
2017-11-29T05:42:03.071Z,10.30
2017-11-29T05:44:31.337Z,11.67
2017-11-29T05:46:59.559Z,11.90
2017-11-29T05:49:28.604Z,12.40
2017-11-29T05:51:56.893Z,11.77
2017-11-29T05:54:25.204Z,10.60
2017-11-29T05:56:53.489Z,8.20
2017-11-29T05:59:21.846Z,11.00
2017-11-29T06:01:50.105Z,14.37
2017-11-29T06:04:18.374Z,39.73
2017-11-29T06:06:46.624Z,32.33
2017-11-29T06:09:14.900Z,13.70
2017-11-29T06:11:43.972Z,12.37
2017-11-29T06:14:13.041Z,11.00
2017-11-29T06:16:41.340Z,11.10
2017-11-29T06:19:10.373Z,13.23
2017-11-29T06:21:38.636Z,11.10
2017-11-29T06:24:07.663Z,15.30
2017-11-29T06:26:36.000Z,12.20
2017-11-29T06:29:04.292Z,20.60
2017-11-29T06:31:32.577Z,15.83
2017-11-29T06:34:00.926Z,12.93
2017-11-29T06:36:29.164Z,12.20
2017-11-29T06:38:57.436Z,13.97
2017-11-29T06:41:25.725Z,21.77
2017-11-29T06:43:53.965Z,11.03
2017-11-29T06:46:22.204Z,15.23
2017-11-29T06:48:50.580Z,13.23
2017-11-29T06:51:18.799Z,11.80
2017-11-29T06:53:47.051Z,19.70
2017-11-29T06:56:16.067Z,12.53
2017-11-29T06:58:44.323Z,11.07
2017-11-29T07:01:13.346Z,14.00
2017-11-29T07:03:41.627Z,10.40
2017-11-29T07:06:09.888Z,13.97
2017-11-29T07:08:38.889Z,14.93
2017-11-29T07:11:07.166Z,12.90
2017-11-29T07:13:35.432Z,12.43
2017-11-29T07:16:04.485Z,14.67
2017-11-29T07:18:32.759Z,13.70
2017-11-29T07:21:01.056Z,9.80
2017-11-29T07:23:29.752Z,15.77
2017-11-29T07:25:58.796Z,14.90
2017-11-29T07:28:27.067Z,14.80
2017-11-29T07:30:55.326Z,11.60
2017-11-29T07:33:23.600Z,17.90
2017-11-29T07:35:51.849Z,13.87
2017-11-29T07:38:20.137Z,18.03
2017-11-29T07:40:49.648Z,15.97
2017-11-29T07:43:17.886Z,10.33
2017-11-29T07:45:46.124Z,12.20
2017-11-29T07:48:14.371Z,17.87
2017-11-29T07:50:42.638Z,17.30
2017-11-29T07:53:11.700Z,11.13
2017-11-29T07:55:39.939Z,12.70
2017-11-29T07:58:08.938Z,15.03
2017-11-29T08:00:37.180Z,29.37
2017-11-29T08:03:05.412Z,17.40
2017-11-29T08:05:33.668Z,17.03
2017-11-29T08:08:01.928Z,19.63
2017-11-29T08:10:30.199Z,16.10
2017-11-29T08:12:58.430Z,24.63
2017-11-29T08:15:26.738Z,12.20
2017-11-29T08:17:54.980Z,16.30
2017-11-29T08:20:23.239Z,23.33
2017-11-29T08:22:53.186Z,20.83
2017-11-29T08:25:21.460Z,25.30
2017-11-29T08:27:49.836Z,15.80
2017-11-29T08:30:18.075Z,16.93
2017-11-29T08:32:57.213Z,21.77
2017-11-29T08:35:25.477Z,19.53
2017-11-29T08:37:54.484Z,14.80
2017-11-29T08:40:23.656Z,17.50
2017-11-29T08:42:51.893Z,20.40
2017-11-29T08:45:20.183Z,14.60
2017-11-29T08:47:48.443Z,25.10
2017-11-29T08:50:17.042Z,24.60
2017-11-29T08:52:45.313Z,20.37
2017-11-29T08:55:13.590Z,13.70
2017-11-29T08:57:41.880Z,25.53
2017-11-29T09:00:10.155Z,22.77
2017-11-29T09:02:38.420Z,18.43
2017-11-29T09:05:06.671Z,14.43
2017-11-29T09:07:34.950Z,28.03
2017-11-29T09:10:03.198Z,14.97
2017-11-29T09:12:32.252Z,20.67
2017-11-29T09:15:00.528Z,35.17
2017-11-29T09:17:28.932Z,28.17
2017-11-29T09:19:57.199Z,21.30
2017-11-29T09:22:25.498Z,19.00
2017-11-29T09:24:53.777Z,26.80
2017-11-29T09:27:22.880Z,24.67
2017-11-29T09:29:51.924Z,15.00
2017-11-29T09:32:20.446Z,21.90
2017-11-29T09:34:50.235Z,19.50
2017-11-29T09:37:18.509Z,22.50
2017-11-29T09:39:46.777Z,26.23
2017-11-29T09:42:15.097Z,25.40
2017-11-29T09:44:44.158Z,28.20
2017-11-29T09:47:12.572Z,19.00
2017-11-29T09:49:40.851Z,29.93
2017-11-29T09:52:09.972Z,19.37
2017-11-29T09:54:38.979Z,15.37
2017-11-29T09:57:07.251Z,16.90
2017-11-29T09:59:35.542Z,21.53
2017-11-29T10:02:03.839Z,17.80
2017-11-29T10:04:32.093Z,23.73
2017-11-29T10:07:00.390Z,25.90
2017-11-29T10:09:28.686Z,33.90
2017-11-29T10:11:57.028Z,22.97
2017-11-29T10:14:25.311Z,17.73
2017-11-29T10:16:53.596Z,33.77
2017-11-29T10:19:22.360Z,24.30
2017-11-29T10:21:50.629Z,28.00
2017-11-29T10:24:18.928Z,23.17
2017-11-29T10:26:48.989Z,26.37
2017-11-29T10:29:17.299Z,24.70
2017-11-29T10:31:46.417Z,25.37
2017-11-29T10:34:14.685Z,19.43
2017-11-29T10:36:42.974Z,24.53
2017-11-29T10:39:11.272Z,19.73
2017-11-29T10:41:39.555Z,40.37
2017-11-29T10:44:07.897Z,24.43
2017-11-29T10:46:36.983Z,21.97
2017-11-29T10:49:05.269Z,33.37
2017-11-29T10:51:34.324Z,29.93
2017-11-29T10:54:02.605Z,29.93
2017-11-29T10:56:30.965Z,27.00
2017-11-29T10:58:59.251Z,25.70
2017-11-29T11:01:28.358Z,23.67
2017-11-29T11:03:56.597Z,26.33
2017-11-29T11:06:24.877Z,27.10
2017-11-29T11:08:53.180Z,27.43
2017-11-29T11:11:21.461Z,17.57
2017-11-29T11:13:50.568Z,24.83
2017-11-29T11:16:19.609Z,28.63
2017-11-29T11:18:48.641Z,26.20
2017-11-29T11:21:16.927Z,36.43
2017-11-29T11:23:46.913Z,33.80
2017-11-29T11:26:15.190Z,19.70
2017-11-29T11:28:43.522Z,25.40
2017-11-29T11:31:11.908Z,33.77
2017-11-29T11:33:40.135Z,22.40
2017-11-29T11:36:08.479Z,25.40
2017-11-29T11:38:36.841Z,29.40
2017-11-29T11:41:05.156Z,19.20
2017-11-29T11:43:33.435Z,23.97
2017-11-29T11:46:01.700Z,18.47
2017-11-29T11:48:29.968Z,20.33
2017-11-29T11:50:58.270Z,24.27
2017-11-29T11:53:26.579Z,33.07
2017-11-29T11:55:54.876Z,27.13
2017-11-29T11:58:23.920Z,19.70
2017-11-29T12:00:52.226Z,21.53
2017-11-29T12:03:20.498Z,31.97
2017-11-29T12:05:48.736Z,17.37
2017-11-29T12:08:17.014Z,23.60
2017-11-29T12:10:45.310Z,17.90
2017-11-29T12:13:13.579Z,17.23
2017-11-29T12:15:41.931Z,31.50
2017-11-29T12:18:10.969Z,20.90
2017-11-29T12:20:39.273Z,23.30
2017-11-29T12:23:07.543Z,27.93
2017-11-29T12:25:36.622Z,22.77
2017-11-29T12:28:04.920Z,28.33
2017-11-29T12:30:33.226Z,25.63
2017-11-29T12:33:01.523Z,21.47
2017-11-29T12:35:29.889Z,33.60
2017-11-29T12:37:58.912Z,36.80
2017-11-29T12:40:27.254Z,23.10
2017-11-29T12:42:55.533Z,23.50
2017-11-29T12:45:24.580Z,23.53
2017-11-29T12:47:52.858Z,32.80
2017-11-29T12:53:25.670Z,25.40
2017-11-29T12:55:53.956Z,21.63
2017-11-29T12:58:22.229Z,35.70
2017-11-29T13:00:50.549Z,18.83
2017-11-29T13:03:18.824Z,26.27
2017-11-29T13:05:47.868Z,35.87
2017-11-29T13:08:16.154Z,33.73
2017-11-29T13:10:44.418Z,21.07
2017-11-29T13:13:12.752Z,23.50
2017-11-29T13:15:41.034Z,20.53
2017-11-29T13:18:09.328Z,29.37
2017-11-29T13:20:37.622Z,22.20
2017-11-29T13:23:06.114Z,26.10
2017-11-29T13:25:34.396Z,25.77
2017-11-29T13:28:02.691Z,34.53
2017-11-29T13:30:31.114Z,21.17
2017-11-29T13:32:59.354Z,28.47
2017-11-29T13:35:27.697Z,35.20
2017-11-29T13:37:56.083Z,31.07
2017-11-29T13:40:24.420Z,31.73
2017-11-29T13:42:53.445Z,25.10
2017-11-29T13:45:21.773Z,20.57
2017-11-29T13:47:50.074Z,21.43
2017-11-29T13:50:19.176Z,20.20
2017-11-29T13:52:48.203Z,19.17
2017-11-29T13:55:16.510Z,19.20
2017-11-29T13:57:44.915Z,35.87
2017-11-29T14:00:13.221Z,27.83
2017-11-29T14:02:41.582Z,25.30
2017-11-29T14:05:09.850Z,22.60
2017-11-29T14:07:38.135Z,14.60
2017-11-29T14:10:07.201Z,13.23
2017-11-29T14:12:36.140Z,15.80
2017-11-29T14:15:04.497Z,26.70
2017-11-29T14:17:32.781Z,13.93
2017-11-29T14:20:02.758Z,18.77
2017-11-29T14:22:32.018Z,16.00
2017-11-29T14:25:01.062Z,16.87
2017-11-29T14:27:29.368Z,14.40
2017-11-29T14:29:57.656Z,11.40
2017-11-29T14:32:26.326Z,20.17
2017-11-29T14:34:54.652Z,20.27
2017-11-29T14:37:23.719Z,22.13
2017-11-29T14:39:53.510Z,18.40
2017-11-29T14:42:21.830Z,14.93
2017-11-29T14:44:51.009Z,15.07
2017-11-29T14:47:19.251Z,11.10
2017-11-29T14:49:47.554Z,14.50
2017-11-29T14:52:15.934Z,16.10
2017-11-29T14:54:44.193Z,16.33
2017-11-29T14:57:12.434Z,12.03
2017-11-29T14:59:40.752Z,16.13
2017-11-29T15:02:09.000Z,21.90
2017-11-29T15:04:37.265Z,29.97
2017-11-29T15:07:05.587Z,11.17
2017-11-29T15:09:33.877Z,11.83
2017-11-29T15:12:02.138Z,25.93
2017-11-29T15:14:30.473Z,17.97
2017-11-29T15:16:59.516Z,36.23
2017-11-29T15:19:27.814Z,19.00
2017-11-29T15:21:56.048Z,28.80
2017-11-29T15:24:24.321Z,19.77
2017-11-29T15:26:52.600Z,36.63
2017-11-29T15:29:20.910Z,15.10
2017-11-29T15:31:49.176Z,19.80
2017-11-29T15:34:17.462Z,22.90
2017-11-29T15:36:45.783Z,14.97
2017-11-29T15:39:14.803Z,23.13
2017-11-29T15:41:43.089Z,24.83
2017-11-29T15:44:11.919Z,27.27
2017-11-29T15:46:40.297Z,32.03
2017-11-29T15:49:08.680Z,25.80
2017-11-29T15:51:36.929Z,18.97
2017-11-29T15:54:05.214Z,16.73
2017-11-29T15:56:33.606Z,17.33
2017-11-29T15:59:01.862Z,13.87
2017-11-29T16:01:30.179Z,11.53
2017-11-29T16:03:59.273Z,17.63
2017-11-29T16:06:28.346Z,23.70
2017-11-29T16:08:56.664Z,33.80
2017-11-29T16:11:25.057Z,40.30
2017-11-29T16:13:53.318Z,58.53
2017-11-29T16:16:22.460Z,25.50
2017-11-29T16:18:50.763Z,12.23
2017-11-29T16:21:19.020Z,14.40
2017-11-29T16:23:47.409Z,18.90
2017-11-29T16:26:16.556Z,16.00
2017-11-29T16:28:45.871Z,15.00
2017-11-29T16:31:14.368Z,11.20
2017-11-29T16:33:42.798Z,18.33
2017-11-29T16:36:11.089Z,19.10
2017-11-29T16:38:40.148Z,16.50
2017-11-29T16:41:08.493Z,16.93
2017-11-29T16:43:36.776Z,20.53
2017-11-29T16:46:05.136Z,15.90
2017-11-29T16:48:33.494Z,20.80
2017-11-29T16:51:02.190Z,17.47
2017-11-29T16:53:31.808Z,15.30
2017-11-29T16:56:00.364Z,18.00
2017-11-29T16:58:28.658Z,29.73
2017-11-29T17:00:57.938Z,18.93
2017-11-29T17:03:27.363Z,20.00
2017-11-29T17:05:55.720Z,26.23
2017-11-29T17:08:24.100Z,31.73
2017-11-29T17:10:54.025Z,23.13
2017-11-29T17:13:22.632Z,28.03
2017-11-29T17:15:51.801Z,22.57
2017-11-29T17:18:20.864Z,31.67
2017-11-29T17:20:50.197Z,34.60
2017-11-29T17:23:18.513Z,20.83
2017-11-29T17:25:47.579Z,22.23
2017-11-29T17:28:15.897Z,27.97
2017-11-29T17:30:44.253Z,25.03
2017-11-29T17:33:12.569Z,38.40
2017-11-29T17:35:41.625Z,23.77
2017-11-29T17:38:10.657Z,20.13
2017-11-29T17:40:39.010Z,29.60
2017-11-29T17:43:08.264Z,30.37
2017-11-29T17:45:36.546Z,23.23
2017-11-29T17:48:04.886Z,25.60
2017-11-29T17:50:33.231Z,21.10
2017-11-29T17:53:01.531Z,29.30
2017-11-29T17:55:30.660Z,44.03
2017-11-29T17:57:58.983Z,44.47
2017-11-29T18:00:27.346Z,19.70
2017-11-29T18:02:55.672Z,38.50
2017-11-29T18:05:24.010Z,31.30
2017-11-29T18:07:53.169Z,32.10
2017-11-29T18:10:21.481Z,31.70
2017-11-29T18:12:50.574Z,28.40
2017-11-29T18:15:18.867Z,26.30
2017-11-29T18:17:47.914Z,40.97
2017-11-29T18:20:16.300Z,35.53
2017-11-29T18:22:44.625Z,39.47
2017-11-29T18:25:13.755Z,29.17
2017-11-29T18:27:42.254Z,44.07
2017-11-29T18:30:10.670Z,29.27
2017-11-29T18:32:38.963Z,28.50
2017-11-29T18:35:07.242Z,31.60
2017-11-29T18:37:35.711Z,29.30
2017-11-29T18:40:04.075Z,35.13
2017-11-29T18:42:32.418Z,29.03
2017-11-29T18:45:00.764Z,44.17
2017-11-29T18:47:29.847Z,39.83
2017-11-29T18:49:58.207Z,33.63
2017-11-29T18:52:26.512Z,28.43
2017-11-29T18:54:54.951Z,30.13
2017-11-29T18:57:23.219Z,35.90
2017-11-29T18:59:51.537Z,36.77
2017-11-29T19:02:21.422Z,33.93
2017-11-29T19:04:49.733Z,37.63
2017-11-29T19:07:18.060Z,30.80
2017-11-29T19:09:46.530Z,31.57
2017-11-29T19:12:14.908Z,32.70
2017-11-29T19:14:43.973Z,39.80
2017-11-29T19:17:13.796Z,27.77
2017-11-29T19:19:42.156Z,52.13
2017-11-29T19:22:10.460Z,30.03
2017-11-29T19:24:39.597Z,25.50
2017-11-29T19:27:07.904Z,23.17
2017-11-29T19:29:37.114Z,27.30
2017-11-29T19:32:06.421Z,22.93
2017-11-29T19:34:35.707Z,33.57
2017-11-29T19:37:04.030Z,41.37
2017-11-29T19:39:33.144Z,31.13
2017-11-29T19:42:01.418Z,38.77
2017-11-29T19:44:29.771Z,38.70
2017-11-29T19:46:58.819Z,37.97
2017-11-29T19:49:27.137Z,30.03
2017-11-29T19:51:56.244Z,41.07
2017-11-29T19:54:25.356Z,42.03
2017-11-29T19:56:54.017Z,46.30
2017-11-29T19:59:22.327Z,54.97
2017-11-29T20:01:50.649Z,48.60
2017-11-29T20:04:19.860Z,63.13
2017-11-29T20:06:48.188Z,50.40
2017-11-29T20:09:16.673Z,52.50
2017-11-29T20:11:45.015Z,59.03
2017-11-29T20:14:13.356Z,53.13
2017-11-29T20:16:43.536Z,53.73
2017-11-29T20:19:11.823Z,70.77
2017-11-29T20:21:40.117Z,61.37
2017-11-29T20:24:08.673Z,54.93
2017-11-29T20:26:37.136Z,64.70
2017-11-29T20:29:05.510Z,53.33
2017-11-29T20:31:34.647Z,69.07
2017-11-29T20:34:03.667Z,61.90
2017-11-29T20:36:32.655Z,72.17
2017-11-29T20:39:00.912Z,67.03
2017-11-29T20:41:29.251Z,59.07
2017-11-29T20:43:58.541Z,58.93
2017-11-29T20:46:26.826Z,70.80
2017-11-29T20:48:55.108Z,56.27
2017-11-29T20:51:24.154Z,59.37
2017-11-29T20:53:52.539Z,65.57
2017-11-29T20:56:21.221Z,59.70
2017-11-29T20:58:49.547Z,50.53
2017-11-29T21:01:18.336Z,56.60
2017-11-29T21:03:46.689Z,60.43
2017-11-29T21:06:15.508Z,88.67
2017-11-29T21:08:44.637Z,72.20
2017-11-29T21:11:12.976Z,75.53
2017-11-29T21:13:41.273Z,59.87
2017-11-29T21:16:09.784Z,63.70
2017-11-29T21:18:38.118Z,58.57
2017-11-29T21:21:07.564Z,54.97
2017-11-29T21:23:35.886Z,61.27
2017-11-29T21:26:04.174Z,50.13
2017-11-29T21:28:32.466Z,48.23
2017-11-29T21:31:01.518Z,84.33
2017-11-29T21:33:29.924Z,63.17
2017-11-29T21:35:58.227Z,52.77
2017-11-29T21:38:26.568Z,55.57
2017-11-29T21:40:54.921Z,63.00
2017-11-29T21:43:23.568Z,50.13
2017-11-29T21:45:52.009Z,56.23
2017-11-29T21:48:20.327Z,55.20
2017-11-29T21:50:49.391Z,55.67
2017-11-29T21:53:17.680Z,59.60
2017-11-29T21:55:45.960Z,43.93
2017-11-29T21:58:14.270Z,58.40
2017-11-29T22:00:43.304Z,41.27
2017-11-29T22:03:11.666Z,53.67
2017-11-29T22:05:40.045Z,43.70
2017-11-29T22:08:09.074Z,40.23
2017-11-29T22:10:37.354Z,39.67
2017-11-29T22:13:07.065Z,43.23
2017-11-29T22:15:35.388Z,38.13
2017-11-29T22:18:03.793Z,39.60
2017-11-29T22:20:32.041Z,44.60
2017-11-29T22:23:01.077Z,44.63
2017-11-29T22:25:29.459Z,41.67
2017-11-29T22:27:57.752Z,38.37
2017-11-29T22:30:26.029Z,41.63
2017-11-29T22:32:54.293Z,44.50
2017-11-29T22:35:23.580Z,41.37
2017-11-29T22:37:51.868Z,51.00
2017-11-29T22:40:20.122Z,39.93
2017-11-29T22:42:48.419Z,37.13
2017-11-29T22:45:16.688Z,39.03
2017-11-29T22:47:44.954Z,35.30
2017-11-29T22:50:13.196Z,38.10
2017-11-29T22:52:42.236Z,56.27
2017-11-29T22:55:10.490Z,45.70
2017-11-29T22:57:38.739Z,42.43
2017-11-29T23:00:07.034Z,56.40
2017-11-29T23:02:35.336Z,45.20
2017-11-29T23:05:03.585Z,47.80
2017-11-29T23:07:33.506Z,53.23
2017-11-29T23:10:02.577Z,49.03
2017-11-29T23:12:30.861Z,44.10
2017-11-29T23:14:59.091Z,51.33
2017-11-29T23:17:27.347Z,48.80
2017-11-29T23:19:55.625Z,42.87
2017-11-29T23:22:24.688Z,47.83
2017-11-29T23:24:52.974Z,42.13
2017-11-29T23:27:21.210Z,53.17
2017-11-29T23:29:49.487Z,39.30
2017-11-29T23:32:17.737Z,49.03
2017-11-29T23:34:45.980Z,44.07
2017-11-29T23:37:15.020Z,42.07
2017-11-29T23:39:43.296Z,48.63
2017-11-29T23:42:11.580Z,43.23
2017-11-29T23:44:39.844Z,48.00
2017-11-29T23:47:08.102Z,38.37
2017-11-29T23:49:37.127Z,44.63
2017-11-29T23:52:05.440Z,41.10
2017-11-29T23:54:33.686Z,37.70
2017-11-29T23:57:01.997Z,52.93
2017-11-29T23:59:30.244Z,40.93
